M. S. Shahan II — WDD7097 — position and weather

sailwx.info

Track history (hours):
 
Tides and Currents Weather Stations Pressure Air Temp Water Temp Dewpoint Dewpoint Depression Visibility Wind Speed Wind Dir Waves Ship Positions

M. S. Shahan II

Owner: Department of Homeland Security Plum Island Facility, Greenport, NY. More information available from US FCC via Universal Licensing System and Coast Guard Vessel Documentation Center.

Last reported at 2018-Feb-23 13:10 UTC. Time now 2018-Feb-25 19:58 UTC.
Position N 41°10' W 072°13'.

Length 40 m; draft 3 m.

Type: Passenger vessel. MMSI: 367181880.

Date/timePositionNaut miles runAvg speedWind from/ knotsBaromVisibWave heightAir tempDewpointWater temp
2018-Feb-23 13:10N 41°10' W 072°13'423.1
2018-Feb-23 13:00N 41°13' W 072°17'5 9.9
2018-Feb-23 12:29N 41°17' W 072°21'817.7
2018-Feb-23 12:00N 41°11' W 072°13'3 6.8
2018-Feb-23 11:30N 41°13' W 072°17'5 9.9
2018-Feb-23 10:59N 41°17' W 072°21'0 0.0
2018-Feb-23 00:21N 41°17' W 072°21'514.0
2018-Feb-23 00:00N 41°13' W 072°17'4 0.3
2018-Feb-22 11:44N 41°10' W 072°13'522.2
2018-Feb-22 11:30N 41°13' W 072°18'4 8.0
2018-Feb-22 11:00N 41°17' W 072°21'0 0.0
2018-Feb-22 05:19N 41°17' W 072°21'515.2
2018-Feb-22 05:00N 41°13' W 072°18'5 1.3
2018-Feb-22 01:09N 41°10' W 072°12'2 4.4
2018-Feb-22 00:47N 41°11' W 072°14'723.2
2018-Feb-22 00:30N 41°15' W 072°21'3 6.1
2018-Feb-22 00:00N 41°14' W 072°17'2 1.2
2018-Feb-21 22:12N 41°12' W 072°15'423.2
2018-Feb-21 22:00N 41°15' W 072°20'3 5.2
2018-Feb-21 21:30N 41°13' W 072°17'1 2.1
2018-Feb-21 20:52N 41°12' W 072°16'616.9
2018-Feb-21 20:31N 41°17' W 072°21'6 2.2
2018-Feb-21 17:41N 41°12' W 072°16'320.3
2018-Feb-21 17:30N 41°14' W 072°20'3 5.8
2018-Feb-21 17:00N 41°17' W 072°21'7 1.8
2018-Feb-21 13:12N 41°11' W 072°15'421.6
2018-Feb-21 13:00N 41°14' W 072°20'2 3.7
2018-Feb-21 12:31N 41°16' W 072°21'7 8.9
2018-Feb-21 11:44N 41°11' W 072°14'522.0
2018-Feb-21 11:31N 41°14' W 072°19'3 6.6
2018-Feb-21 11:00N 41°17' W 072°21'0 0.0
2018-Feb-21 05:28N 41°17' W 072°21'613.0
2018-Feb-21 05:00N 41°12' W 072°16'2 0.5
2018-Feb-21 00:49N 41°11' W 072°14'721.5
2018-Feb-21 00:30N 41°15' W 072°21'4 7.4
2018-Feb-21 00:00N 41°13' W 072°17'3 1.9
2018-Feb-20 22:28N 41°11' W 072°14'816.8
2018-Feb-20 22:00N 41°17' W 072°21'511.0
2018-Feb-20 21:30N 41°12' W 072°17'3 5.1
2018-Feb-20 20:56N 41°11' W 072°14'819.2
2018-Feb-20 20:30N 41°17' W 072°21'4 9.0
2018-Feb-20 20:00N 41°13' W 072°17'2 0.9
2018-Feb-20 17:41N 41°12' W 072°16'320.2
2018-Feb-20 17:30N 41°14' W 072°20'3 6.1
2018-Feb-20 17:00N 41°17' W 072°21'6 1.6
2018-Feb-20 13:11N 41°12' W 072°15'420.9
2018-Feb-20 13:00N 41°14' W 072°20'2 3.8
2018-Feb-20 12:30N 41°16' W 072°21'7 9.3
2018-Feb-20 11:45N 41°11' W 072°14'622.7
2018-Feb-20 11:30N 41°14' W 072°20'3 5.8
2018-Feb-20 11:00N 41°17' W 072°21'0 0.0
2018-Feb-20 10:28N 41°17' W 072°21'0 0.0
2018-Feb-20 10:00N 41°17' W 072°21'0 0.0
2018-Feb-20 09:30N 41°17' W 072°21'0 0.0
2018-Feb-20 09:00N 41°17' W 072°21'0 0.0
2018-Feb-20 08:30N 41°17' W 072°21'0 0.0
2018-Feb-20 08:00N 41°17' W 072°21'0 0.0
2018-Feb-20 07:30N 41°17' W 072°21'0 0.0
2018-Feb-20 07:00N 41°17' W 072°21'0 0.0
2018-Feb-20 06:29N 41°17' W 072°21'0 0.0
2018-Feb-20 06:00N 41°17' W 072°21'0 0.0
2018-Feb-20 05:30N 41°17' W 072°21'4 8.4
2018-Feb-20 05:00N 41°13' W 072°18'4 0.6
2018-Feb-19 23:23N 41°11' W 072°14'820.9
2018-Feb-19 23:00N 41°17' W 072°21'0 0.0
2018-Feb-19 22:30N 41°17' W 072°21'0 0.0
2018-Feb-19 22:00N 41°17' W 072°21'0 0.0
2018-Feb-19 21:30N 41°17' W 072°21'5 9.8
2018-Feb-19 21:00N 41°13' W 072°17'4 2.5
2018-Feb-19 19:29N 41°10' W 072°13'918.7
2018-Feb-19 19:00N 41°17' W 072°21'0 0.0
2018-Feb-19 18:30N 41°17' W 072°21'  
2018-Feb-16 17:34N 41°11' W 072°14'122.7
2018-Feb-16 17:30N 41°12' W 072°15'713.1
2018-Feb-16 17:00N 41°17' W 072°21'7 1.9
2018-Feb-16 13:14N 41°11' W 072°15'520.0
2018-Feb-16 13:00N 41°14' W 072°20'1 2.8
2018-Feb-16 12:31N 41°15' W 072°21'6 6.8
2018-Feb-16 11:41N 41°11' W 072°16'420.4
2018-Feb-16 11:31N 41°14' W 072°20'3 6.8
2018-Feb-16 11:00N 41°17' W 072°21'0 0.0
2018-Feb-15 21:57N 41°17' W 072°21'511.3
2018-Feb-15 21:30N 41°13' W 072°17'3 4.4
2018-Feb-15 20:49N 41°11' W 072°14'722.7
2018-Feb-15 20:30N 41°15' W 072°21'4 7.0
2018-Feb-15 20:00N 41°13' W 072°17'4 1.9
2018-Feb-15 17:46N 41°10' W 072°13'622.8
2018-Feb-15 17:31N 41°14' W 072°19'2 3.3
2018-Feb-15 17:00N 41°15' W 072°21'5 1.4
2018-Feb-15 13:12N 41°11' W 072°15'420.0
2018-Feb-15 13:00N 41°14' W 072°19'3 5.2
2018-Feb-15 12:30N 41°16' W 072°20'6 8.0
2018-Feb-15 11:43N 41°11' W 072°15'420.4
2018-Feb-15 11:30N 41°14' W 072°20'3 6.2
2018-Feb-15 10:59N 41°17' W 072°21'0 0.0
2018-Feb-15 05:26N 41°17' W 072°21'512.0
2018-Feb-15 05:00N 41°13' W 072°17'4 1.0
2018-Feb-15 00:48N 41°10' W 072°13'620.9
2018-Feb-15 00:31N 41°14' W 072°19'0 0.9
2018-Feb-15 00:01N 41°14' W 072°18'610.3
2018-Feb-14 23:26N 41°10' W 072°12'1 1.0
2018-Feb-14 22:29N 41°09' W 072°13'919.9
2018-Feb-14 22:00N 41°17' W 072°21'510.2
2018-Feb-14 21:31N 41°13' W 072°16'2 2.7
2018-Feb-14 20:54N 41°12' W 072°15'716.8
2018-Feb-14 20:30N 41°17' W 072°21'510.4
2018-Feb-14 20:00N 41°13' W 072°16'4 1.6
2018-Feb-14 17:44N 41°10' W 072°13'522.3
2018-Feb-14 17:31N 41°13' W 072°19'3 7.0
2018-Feb-14 17:01N 41°17' W 072°21'8 2.2
2018-Feb-14 13:16N 41°10' W 072°13'620.0
2018-Feb-14 12:59N 41°14' W 072°19'2 3.9
2018-Feb-14 12:30N 41°15' W 072°21'5 6.7
2018-Feb-14 11:43N 41°12' W 072°16'419.4
2018-Feb-14 11:30N 41°14' W 072°20'3 5.8
2018-Feb-14 11:00N 41°17' W 072°21'0 0.0
2018-Feb-14 10:30N 41°17' W 072°21'0 0.1
2018-Feb-14 05:15N 41°17' W 072°21'518.5
2018-Feb-14 05:00N 41°13' W 072°17'2 0.5
2018-Feb-14 00:49N 41°11' W 072°15'619.7
2018-Feb-14 00:31N 41°16' W 072°21'2 4.7
2018-Feb-14 00:00N 41°14' W 072°18'6 6.4
2018-Feb-13 23:04N 41°10' W 072°12'1 1.7
2018-Feb-13 22:39N 41°09' W 072°13'2 4.9
2018-Feb-13 22:17N 41°11' W 072°15'620.8
2018-Feb-13 22:00N 41°15' W 072°20'2 5.0
2018-Feb-13 21:31N 41°13' W 072°17'4 6.9
2018-Feb-13 20:55N 41°10' W 072°13'921.1
2018-Feb-13 20:30N 41°17' W 072°21'4 8.8
2018-Feb-13 20:00N 41°13' W 072°17'4 1.8
2018-Feb-13 17:43N 41°10' W 072°13'422.0
2018-Feb-13 17:31N 41°13' W 072°18'4 7.6
2018-Feb-13 17:00N 41°16' W 072°21'  
Track history (hours):
 
Tides and Currents Weather Stations Pressure Air Temp Water Temp Dewpoint Dewpoint Depression Visibility Wind Speed Wind Dir Waves Ship Positions

M. S. Shahan II

Owner: Department of Homeland Security Plum Island Facility, Greenport, NY. More information available from US FCC via Universal Licensing System and Coast Guard Vessel Documentation Center.

Last reported at 2018-Feb-23 13:10 UTC. Time now 2018-Feb-25 19:58 UTC.
Position N 41°10' W 072°13'.

Length 40 m; draft 3 m.

Type: Passenger vessel. MMSI: 367181880.

Date/timePositionNaut miles runAvg speedWind from/ knotsBaromVisibWave heightAir tempDewpointWater temp
2018-Feb-23 13:10N 41°10' W 072°13'423.1
2018-Feb-23 13:00N 41°13' W 072°17'5 9.9
2018-Feb-23 12:29N 41°17' W 072°21'817.7
2018-Feb-23 12:00N 41°11' W 072°13'3 6.8
2018-Feb-23 11:30N 41°13' W 072°17'5 9.9
2018-Feb-23 10:59N 41°17' W 072°21'0 0.0
2018-Feb-23 00:21N 41°17' W 072°21'514.0
2018-Feb-23 00:00N 41°13' W 072°17'4 0.3
2018-Feb-22 11:44N 41°10' W 072°13'522.2
2018-Feb-22 11:30N 41°13' W 072°18'4 8.0
2018-Feb-22 11:00N 41°17' W 072°21'0 0.0
2018-Feb-22 05:19N 41°17' W 072°21'515.2
2018-Feb-22 05:00N 41°13' W 072°18'5 1.3
2018-Feb-22 01:09N 41°10' W 072°12'2 4.4
2018-Feb-22 00:47N 41°11' W 072°14'723.2
2018-Feb-22 00:30N 41°15' W 072°21'3 6.1
2018-Feb-22 00:00N 41°14' W 072°17'2 1.2
2018-Feb-21 22:12N 41°12' W 072°15'423.2
2018-Feb-21 22:00N 41°15' W 072°20'3 5.2
2018-Feb-21 21:30N 41°13' W 072°17'1 2.1
2018-Feb-21 20:52N 41°12' W 072°16'616.9
2018-Feb-21 20:31N 41°17' W 072°21'6 2.2
2018-Feb-21 17:41N 41°12' W 072°16'320.3
2018-Feb-21 17:30N 41°14' W 072°20'3 5.8
2018-Feb-21 17:00N 41°17' W 072°21'7 1.8
2018-Feb-21 13:12N 41°11' W 072°15'421.6
2018-Feb-21 13:00N 41°14' W 072°20'2 3.7
2018-Feb-21 12:31N 41°16' W 072°21'7 8.9
2018-Feb-21 11:44N 41°11' W 072°14'522.0
2018-Feb-21 11:31N 41°14' W 072°19'3 6.6
2018-Feb-21 11:00N 41°17' W 072°21'0 0.0
2018-Feb-21 05:28N 41°17' W 072°21'613.0
2018-Feb-21 05:00N 41°12' W 072°16'2 0.5
2018-Feb-21 00:49N 41°11' W 072°14'721.5
2018-Feb-21 00:30N 41°15' W 072°21'4 7.4
2018-Feb-21 00:00N 41°13' W 072°17'3 1.9
2018-Feb-20 22:28N 41°11' W 072°14'816.8
2018-Feb-20 22:00N 41°17' W 072°21'511.0
2018-Feb-20 21:30N 41°12' W 072°17'3 5.1
2018-Feb-20 20:56N 41°11' W 072°14'819.2
2018-Feb-20 20:30N 41°17' W 072°21'4 9.0
2018-Feb-20 20:00N 41°13' W 072°17'2 0.9
2018-Feb-20 17:41N 41°12' W 072°16'320.2
2018-Feb-20 17:30N 41°14' W 072°20'3 6.1
2018-Feb-20 17:00N 41°17' W 072°21'6 1.6
2018-Feb-20 13:11N 41°12' W 072°15'420.9
2018-Feb-20 13:00N 41°14' W 072°20'2 3.8
2018-Feb-20 12:30N 41°16' W 072°21'7 9.3
2018-Feb-20 11:45N 41°11' W 072°14'622.7
2018-Feb-20 11:30N 41°14' W 072°20'3 5.8
2018-Feb-20 11:00N 41°17' W 072°21'0 0.0
2018-Feb-20 10:28N 41°17' W 072°21'0 0.0
2018-Feb-20 10:00N 41°17' W 072°21'0 0.0
2018-Feb-20 09:30N 41°17' W 072°21'0 0.0
2018-Feb-20 09:00N 41°17' W 072°21'0 0.0
2018-Feb-20 08:30N 41°17' W 072°21'0 0.0
2018-Feb-20 08:00N 41°17' W 072°21'0 0.0
2018-Feb-20 07:30N 41°17' W 072°21'0 0.0
2018-Feb-20 07:00N 41°17' W 072°21'0 0.0
2018-Feb-20 06:29N 41°17' W 072°21'0 0.0
2018-Feb-20 06:00N 41°17' W 072°21'0 0.0
2018-Feb-20 05:30N 41°17' W 072°21'4 8.4
2018-Feb-20 05:00N 41°13' W 072°18'4 0.6
2018-Feb-19 23:23N 41°11' W 072°14'820.9
2018-Feb-19 23:00N 41°17' W 072°21'0 0.0
2018-Feb-19 22:30N 41°17' W 072°21'0 0.0
2018-Feb-19 22:00N 41°17' W 072°21'0 0.0
2018-Feb-19 21:30N 41°17' W 072°21'5 9.8
2018-Feb-19 21:00N 41°13' W 072°17'4 2.5
2018-Feb-19 19:29N 41°10' W 072°13'918.7
2018-Feb-19 19:00N 41°17' W 072°21'0 0.0
2018-Feb-19 18:30N 41°17' W 072°21'  
2018-Feb-16 17:34N 41°11' W 072°14'122.7
2018-Feb-16 17:30N 41°12' W 072°15'713.1
2018-Feb-16 17:00N 41°17' W 072°21'7 1.9
2018-Feb-16 13:14N 41°11' W 072°15'520.0
2018-Feb-16 13:00N 41°14' W 072°20'1 2.8
2018-Feb-16 12:31N 41°15' W 072°21'6 6.8
2018-Feb-16 11:41N 41°11' W 072°16'420.4
2018-Feb-16 11:31N 41°14' W 072°20'3 6.8
2018-Feb-16 11:00N 41°17' W 072°21'0 0.0
2018-Feb-15 21:57N 41°17' W 072°21'511.3
2018-Feb-15 21:30N 41°13' W 072°17'3 4.4
2018-Feb-15 20:49N 41°11' W 072°14'722.7
2018-Feb-15 20:30N 41°15' W 072°21'4 7.0
2018-Feb-15 20:00N 41°13' W 072°17'4 1.9
2018-Feb-15 17:46N 41°10' W 072°13'622.8
2018-Feb-15 17:31N 41°14' W 072°19'2 3.3
2018-Feb-15 17:00N 41°15' W 072°21'5 1.4
2018-Feb-15 13:12N 41°11' W 072°15'420.0
2018-Feb-15 13:00N 41°14' W 072°19'3 5.2
2018-Feb-15 12:30N 41°16' W 072°20'6 8.0
2018-Feb-15 11:43N 41°11' W 072°15'420.4
2018-Feb-15 11:30N 41°14' W 072°20'3 6.2
2018-Feb-15 10:59N 41°17' W 072°21'0 0.0
2018-Feb-15 05:26N 41°17' W 072°21'512.0
2018-Feb-15 05:00N 41°13' W 072°17'4 1.0
2018-Feb-15 00:48N 41°10' W 072°13'620.9
2018-Feb-15 00:31N 41°14' W 072°19'0 0.9
2018-Feb-15 00:01N 41°14' W 072°18'610.3
2018-Feb-14 23:26N 41°10' W 072°12'1 1.0
2018-Feb-14 22:29N 41°09' W 072°13'919.9
2018-Feb-14 22:00N 41°17' W 072°21'510.2
2018-Feb-14 21:31N 41°13' W 072°16'2 2.7
2018-Feb-14 20:54N 41°12' W 072°15'716.8
2018-Feb-14 20:30N 41°17' W 072°21'510.4
2018-Feb-14 20:00N 41°13' W 072°16'4 1.6
2018-Feb-14 17:44N 41°10' W 072°13'522.3
2018-Feb-14 17:31N 41°13' W 072°19'3 7.0
2018-Feb-14 17:01N 41°17' W 072°21'8 2.2
2018-Feb-14 13:16N 41°10' W 072°13'620.0
2018-Feb-14 12:59N 41°14' W 072°19'2 3.9
2018-Feb-14 12:30N 41°15' W 072°21'5 6.7
2018-Feb-14 11:43N 41°12' W 072°16'419.4
2018-Feb-14 11:30N 41°14' W 072°20'3 5.8
2018-Feb-14 11:00N 41°17' W 072°21'0 0.0
2018-Feb-14 10:30N 41°17' W 072°21'0 0.1
2018-Feb-14 05:15N 41°17' W 072°21'518.5
2018-Feb-14 05:00N 41°13' W 072°17'2 0.5
2018-Feb-14 00:49N 41°11' W 072°15'619.7
2018-Feb-14 00:31N 41°16' W 072°21'2 4.7
2018-Feb-14 00:00N 41°14' W 072°18'6 6.4
2018-Feb-13 23:04N 41°10' W 072°12'1 1.7
2018-Feb-13 22:39N 41°09' W 072°13'2 4.9
2018-Feb-13 22:17N 41°11' W 072°15'620.8
2018-Feb-13 22:00N 41°15' W 072°20'2 5.0
2018-Feb-13 21:31N 41°13' W 072°17'4 6.9
2018-Feb-13 20:55N 41°10' W 072°13'921.1
2018-Feb-13 20:30N 41°17' W 072°21'4 8.8
2018-Feb-13 20:00N 41°13' W 072°17'4 1.8
2018-Feb-13 17:43N 41°10' W 072°13'422.0
2018-Feb-13 17:31N 41°13' W 072°18'4 7.6
2018-Feb-13 17:00N 41°16' W 072°21'  

Dump ship's entire track history